Time;durP1;ratioP1;P1;durP2;ratioP2;P2;SDS_P1;SDS_P2;PMS_P1;PMS_P2;Temp;Humidity;BMP_temperature;BMP_pressure;BME280_temperature;BME280_humidity;BME280_pressure;Samples;Min_cycle;Max_cycle;Signal;HPM_P1;HPM_P2
2022/01/15 00:01:28;;;;;;;0.10;0.10;;;1.10;99.90;;;;;;5015136;28;20204;-59
2022/01/15 00:03:54;;;;;;;1.07;1.03;;;1.10;99.90;;;;;;5006835;28;20646;-58
2022/01/15 00:06:19;;;;;;;0.00;0.00;;;1.00;99.90;;;;;;4995678;28;20534;-59
2022/01/15 00:08:45;;;;;;;0.10;0.10;;;1.00;99.90;;;;;;4995276;28;20173;-57
2022/01/15 00:11:11;;;;;;;0.00;0.00;;;1.00;99.90;;;;;;4995457;28;20197;-58
2022/01/15 00:13:39;;;;;;;0.57;0.57;;;0.90;99.90;;;;;;4995283;28;20856;-57
2022/01/15 00:16:27;;;;;;;0.10;0.10;;;0.90;99.90;;;;;;4995419;28;20184;-59
2022/01/15 00:19:06;;;;;;;0.00;0.00;;;1.00;99.90;;;;;;4994151;28;20574;-55
2022/01/15 00:21:32;;;;;;;0.10;0.10;;;0.90;99.90;;;;;;4979688;28;20186;-59
2022/01/15 00:23:58;;;;;;;0.20;0.20;;;0.90;99.90;;;;;;4978122;28;20194;-57
2022/01/15 00:26:24;;;;;;;0.50;0.50;;;0.80;99.90;;;;;;4995359;28;20193;-59
2022/01/15 00:28:50;;;;;;;1.90;0.83;;;0.80;99.90;;;;;;4984577;28;20203;-58
2022/01/15 00:31:16;;;;;;;0.10;0.10;;;0.80;99.90;;;;;;4997033;28;20275;-57
2022/01/15 00:33:41;;;;;;;0.00;0.00;;;0.70;99.90;;;;;;5014147;28;20623;-59
2022/01/15 00:36:07;;;;;;;0.10;0.10;;;0.70;99.90;;;;;;4996779;28;20271;-57
2022/01/15 00:38:33;;;;;;;1.03;0.50;;;0.70;99.90;;;;;;5014394;28;20186;-59
2022/01/15 00:40:59;;;;;;;0.00;0.00;;;0.90;99.90;;;;;;5014622;28;20575;-60
2022/01/15 00:43:24;;;;;;;0.00;0.00;;;0.90;99.90;;;;;;4980671;28;20199;-60
2022/01/15 00:45:51;;;;;;;0.67;0.67;;;0.90;99.90;;;;;;5014303;28;20232;-59
2022/01/15 00:48:16;;;;;;;0.10;0.10;;;0.90;99.90;;;;;;5014345;28;20189;-59
2022/01/15 00:50:42;;;;;;;0.10;0.10;;;0.80;99.90;;;;;;5014560;28;20184;-59
2022/01/15 00:53:08;;;;;;;0.00;0.00;;;0.80;99.90;;;;;;5014253;28;20189;-59
2022/01/15 00:55:34;;;;;;;0.10;0.10;;;0.80;99.90;;;;;;5013989;28;20208;-60
2022/01/15 00:58:00;;;;;;;0.00;0.00;;;0.70;99.90;;;;;;5014091;28;20250;-59
2022/01/15 01:00:26;;;;;;;0.03;0.03;;;0.60;99.90;;;;;;5014157;28;20529;-60
2022/01/15 01:02:52;;;;;;;0.40;0.40;;;0.70;99.90;;;;;;5013623;28;20178;-59
2022/01/15 01:05:20;;;;;;;0.00;0.00;;;0.70;99.90;;;;;;4977465;28;20189;-60
2022/01/15 01:07:46;;;;;;;0.00;0.00;;;0.70;99.90;;;;;;4976601;28;20186;-59
2022/01/15 01:23:24;;;;;;;0.03;0.03;;;0.40;99.90;;;;;;4994245;28;20177;-59
2022/01/15 01:25:55;;;;;;;0.00;0.00;;;0.40;99.90;;;;;;4993778;28;20561;-62
2022/01/15 01:30:54;;;;;;;0.00;0.00;;;0.50;99.90;;;;;;4996018;28;20180;-59
2022/01/15 01:35:50;;;;;;;0.00;0.00;;;0.40;99.90;;;;;;5013421;28;20200;-60
2022/01/15 01:38:26;;;;;;;0.10;0.10;;;0.30;99.90;;;;;;5013599;28;20168;-60
2022/01/15 01:40:52;;;;;;;0.10;0.10;;;0.30;99.90;;;;;;4995629;28;20192;-59
2022/01/15 01:45:53;;;;;;;0.10;0.10;;;0.30;99.90;;;;;;5012505;28;20185;-60
2022/01/15 01:48:19;;;;;;;0.00;0.00;;;0.40;99.90;;;;;;5013258;28;20220;-60
2022/01/15 01:50:45;;;;;;;0.00;0.00;;;0.40;99.90;;;;;;5013005;28;20201;-59
2022/01/15 01:53:11;;;;;;;0.13;0.13;;;0.40;99.90;;;;;;5012955;28;20194;-61
2022/01/15 01:55:37;;;;;;;3.70;1.43;;;0.30;99.90;;;;;;5012955;28;20637;-65
2022/01/15 01:58:03;;;;;;;0.00;0.00;;;0.30;99.90;;;;;;5013177;28;20181;-61
2022/01/15 02:00:30;;;;;;;0.00;0.00;;;0.40;99.90;;;;;;5012969;28;20685;-61
2022/01/15 02:02:57;;;;;;;0.00;0.00;;;0.40;99.90;;;;;;5012175;28;20577;-59
2022/01/15 02:05:23;;;;;;;0.20;0.20;;;0.40;99.90;;;;;;4993460;28;20659;-60
2022/01/15 02:07:49;;;;;;;0.00;0.00;;;0.40;99.90;;;;;;4993249;28;20182;-59
2022/01/15 02:10:17;;;;;;;0.10;0.10;;;0.30;99.90;;;;;;4993288;28;20255;-59
2022/01/15 02:12:45;;;;;;;0.03;0.03;;;0.30;99.90;;;;;;4993089;28;20183;-59
2022/01/15 02:15:17;;;;;;;0.63;0.63;;;0.30;99.90;;;;;;4975865;28;20292;-61
2022/01/15 02:17:45;;;;;;;0.00;0.00;;;0.20;99.90;;;;;;4993036;28;20184;-60
2022/01/15 02:25:49;;;;;;;0.10;0.10;;;0.10;99.90;;;;;;4992917;28;20309;-64
2022/01/15 02:28:18;;;;;;;0.00;0.00;;;0.20;99.90;;;;;;4990324;28;20191;-60
2022/01/15 02:30:44;;;;;;;0.00;0.00;;;0.10;99.90;;;;;;5012404;28;20171;-60
2022/01/15 02:33:10;;;;;;;0.00;0.00;;;0.10;99.90;;;;;;5012262;28;20552;-60
2022/01/15 02:35:36;;;;;;;0.10;0.10;;;0.20;99.90;;;;;;5012449;28;20185;-60
2022/01/15 02:38:02;;;;;;;0.10;0.10;;;0.20;99.90;;;;;;5011862;28;20191;-59
2022/01/15 02:40:28;;;;;;;0.00;0.00;;;0.20;99.90;;;;;;5012505;28;20544;-59
2022/01/15 02:42:56;;;;;;;0.00;0.00;;;0.10;99.90;;;;;;5011938;28;20176;-59
2022/01/15 02:45:23;;;;;;;0.00;0.00;;;0.10;99.90;;;;;;4994809;28;20242;-59
2022/01/15 02:48:01;;;;;;;0.03;0.03;;;0.10;99.90;;;;;;5012401;28;20276;-60
2022/01/15 02:50:28;;;;;;;0.20;0.20;;;0.00;99.90;;;;;;4996484;28;20306;-59
2022/01/15 02:52:54;;;;;;;0.00;0.00;;;0.10;99.90;;;;;;5012163;28;20189;-60
2022/01/15 02:55:19;;;;;;;1.60;1.50;;;0.00;99.90;;;;;;5013203;28;20226;-59
2022/01/15 02:57:45;;;;;;;0.20;0.20;;;0.10;99.90;;;;;;5000806;28;20267;-59
2022/01/15 03:00:11;;;;;;;0.13;0.13;;;0.10;99.90;;;;;;5001232;28;20190;-59
2022/01/15 03:02:37;;;;;;;0.10;0.10;;;0.10;99.90;;;;;;5018736;28;20696;-59
2022/01/15 03:05:04;;;;;;;1.40;1.30;;;0.10;99.90;;;;;;4983150;28;20282;-59
2022/01/15 03:07:29;;;;;;;0.00;0.00;;;0.10;99.90;;;;;;4981846;28;20210;-60
2022/01/15 03:09:55;;;;;;;0.10;0.10;;;0.00;99.90;;;;;;4981135;28;20278;-59
2022/01/15 03:12:21;;;;;;;0.20;0.20;;;0.10;99.90;;;;;;4999043;28;20188;-60
2022/01/15 03:14:48;;;;;;;0.17;0.17;;;0.00;99.90;;;;;;4998520;28;20691;-59
2022/01/15 03:17:14;;;;;;;5.43;0.87;;;0.10;99.90;;;;;;4999105;28;20287;-59
2022/01/15 03:19:40;;;;;;;0.00;0.00;;;0.10;99.90;;;;;;4977456;28;20344;-59
2022/01/15 03:22:05;;;;;;;0.00;0.00;;;0.10;99.90;;;;;;4979170;28;20188;-60
2022/01/15 03:24:31;;;;;;;0.10;0.10;;;0.10;99.90;;;;;;4979437;28;20181;-59
2022/01/15 03:26:57;;;;;;;0.87;0.67;;;0.20;99.90;;;;;;4979190;28;20184;-59
2022/01/15 03:29:23;;;;;;;0.00;0.00;;;0.20;99.90;;;;;;4990772;28;20190;-59
2022/01/15 03:31:48;;;;;;;0.20;0.20;;;0.20;99.90;;;;;;4981010;28;20189;-59
2022/01/15 03:34:14;;;;;;;0.40;0.40;;;0.20;99.90;;;;;;4997463;28;20716;-59
2022/01/15 03:36:40;;;;;;;0.53;0.40;;;0.30;99.90;;;;;;4997162;28;20205;-61
2022/01/15 03:39:07;;;;;;;0.07;0.07;;;0.40;99.90;;;;;;4996907;28;20191;-59
2022/01/15 03:41:33;;;;;;;0.00;0.00;;;0.40;99.90;;;;;;4998634;28;20277;-59
2022/01/15 03:43:58;;;;;;;0.10;0.10;;;0.40;99.90;;;;;;4998431;28;20601;-59
2022/01/15 03:46:24;;;;;;;4.90;1.80;;;0.30;99.90;;;;;;4997608;28;20231;-60
2022/01/15 03:48:50;;;;;;;0.00;0.00;;;0.30;99.90;;;;;;4997216;28;20728;-60
2022/01/15 03:51:19;;;;;;;0.10;0.10;;;0.20;99.90;;;;;;4998460;28;20188;-61
2022/01/15 03:53:45;;;;;;;0.00;0.00;;;0.20;99.90;;;;;;4998211;28;20255;-60
2022/01/15 03:56:11;;;;;;;0.00;0.00;;;0.10;99.90;;;;;;4998716;28;20201;-60
2022/01/15 03:58:36;;;;;;;0.10;0.10;;;0.20;99.90;;;;;;4998803;28;20192;-60
2022/01/15 04:01:02;;;;;;;0.20;0.20;;;0.20;99.90;;;;;;4998271;28;20345;-60
2022/01/15 04:03:28;;;;;;;0.37;0.37;;;0.20;99.90;;;;;;4994257;28;20549;-60
2022/01/15 04:05:54;;;;;;;0.20;0.20;;;0.10;99.90;;;;;;4978418;28;20681;-60
2022/01/15 04:08:20;;;;;;;0.07;0.07;;;0.20;99.90;;;;;;4975795;28;20189;-60
2022/01/15 04:10:46;;;;;;;0.10;0.10;;;0.10;99.90;;;;;;4975498;28;20193;-60
2022/01/15 04:13:15;;;;;;;0.20;0.20;;;0.10;99.90;;;;;;4975657;28;20544;-61
2022/01/15 04:15:42;;;;;;;0.10;0.10;;;0.20;99.90;;;;;;4975912;28;20593;-60
2022/01/15 04:18:08;;;;;;;0.43;0.40;;;0.20;99.90;;;;;;4976146;28;20189;-61
2022/01/15 04:20:33;;;;;;;0.00;0.00;;;0.10;99.90;;;;;;4995385;28;20632;-61
2022/01/15 04:22:59;;;;;;;0.10;0.10;;;0.10;99.90;;;;;;4994870;28;20260;-60
2022/01/15 04:25:25;;;;;;;0.00;0.00;;;0.00;99.90;;;;;;4977711;28;20185;-61
2022/01/15 04:27:51;;;;;;;0.20;0.20;;;0.10;99.90;;;;;;4994640;28;20247;-60
2022/01/15 04:30:18;;;;;;;1.20;0.57;;;0.10;99.90;;;;;;5013769;28;20250;-62
2022/01/15 04:32:44;;;;;;;0.10;0.10;;;0.10;99.90;;;;;;5014615;28;20191;-60
2022/01/15 04:35:11;;;;;;;0.23;0.23;;;0.10;99.90;;;;;;5014441;28;20307;-61
2022/01/15 04:37:47;;;;;;;0.10;0.10;;;0.10;99.90;;;;;;5014561;28;20176;-60
2022/01/15 04:40:14;;;;;;;1.43;0.90;;;0.10;99.90;;;;;;5014578;28;20171;-61
2022/01/15 04:42:40;;;;;;;0.00;0.00;;;0.10;99.90;;;;;;5014425;28;20264;-60
2022/01/15 04:45:09;;;;;;;0.30;0.30;;;0.10;99.90;;;;;;5013996;28;20974;-60
2022/01/15 04:47:36;;;;;;;0.00;0.00;;;0.10;99.90;;;;;;5014441;28;20254;-60
2022/01/15 04:50:04;;;;;;;0.10;0.10;;;0.10;99.90;;;;;;5013993;28;20642;-60
2022/01/15 04:52:30;;;;;;;2.23;1.70;;;0.10;99.90;;;;;;4996491;28;20620;-60
2022/01/15 04:54:56;;;;;;;0.50;0.47;;;0.10;99.90;;;;;;4996449;28;20670;-61
2022/01/15 04:57:22;;;;;;;0.30;0.30;;;0.00;99.90;;;;;;4996614;28;20270;-60
2022/01/15 04:59:48;;;;;;;0.60;0.60;;;0.00;99.90;;;;;;5013699;28;20269;-61
2022/01/15 05:02:14;;;;;;;0.00;0.00;;;0.00;99.90;;;;;;5014004;28;20185;-60
2022/01/15 05:04:39;;;;;;;0.23;0.23;;;0.10;99.90;;;;;;4982444;28;20187;-60
2022/01/15 05:07:05;;;;;;;0.10;0.10;;;0.10;99.90;;;;;;4976428;28;20198;-60
2022/01/15 05:09:31;;;;;;;0.00;0.00;;;0.10;99.90;;;;;;4977112;28;20241;-60
2022/01/15 05:12:04;;;;;;;0.10;0.10;;;0.20;99.90;;;;;;4993623;28;20180;-60
2022/01/15 05:14:30;;;;;;;0.10;0.10;;;0.20;99.90;;;;;;4994486;28;20539;-60
2022/01/15 05:16:55;;;;;;;0.00;0.00;;;0.20;99.90;;;;;;4976108;28;20196;-60
2022/01/15 05:19:21;;;;;;;8.63;1.30;;;0.10;99.90;;;;;;4993013;28;20689;-60
2022/01/15 05:21:47;;;;;;;0.10;0.10;;;0.10;99.90;;;;;;4994152;28;20185;-60
2022/01/15 05:24:13;;;;;;;0.10;0.10;;;0.10;99.90;;;;;;4994098;28;20535;-60
2022/01/15 05:26:38;;;;;;;0.13;0.13;;;0.10;99.90;;;;;;4993833;28;20227;-60
2022/01/15 05:29:04;;;;;;;0.30;0.30;;;0.00;99.90;;;;;;4985218;28;20188;-61
2022/01/15 05:31:30;;;;;;;0.03;0.03;;;-0.10;99.90;;;;;;5013074;28;20543;-60
2022/01/15 05:33:56;;;;;;;0.20;0.20;;;-0.10;99.90;;;;;;4995558;28;20262;-61
2022/01/15 05:36:21;;;;;;;0.40;0.40;;;0.00;99.90;;;;;;5013199;28;20192;-60
2022/01/15 05:38:47;;;;;;;0.80;0.80;;;0.00;99.90;;;;;;5013256;28;20199;-59
2022/01/15 05:41:13;;;;;;;0.20;0.20;;;-0.10;99.90;;;;;;5012754;28;20616;-60
2022/01/15 05:43:39;;;;;;;0.93;0.90;;;-0.10;99.90;;;;;;5013101;28;20263;-60
2022/01/15 05:46:05;;;;;;;2.57;1.30;;;-0.20;99.90;;;;;;5012961;28;20188;-61
2022/01/15 05:48:31;;;;;;;0.10;0.10;;;-0.30;99.90;;;;;;4995378;28;20191;-61
2022/01/15 05:50:56;;;;;;;0.10;0.10;;;-0.20;99.90;;;;;;4979097;28;20639;-60
2022/01/15 05:53:22;;;;;;;0.10;0.10;;;-0.30;99.90;;;;;;5012682;28;20609;-61
2022/01/15 05:55:48;;;;;;;0.73;0.67;;;-0.30;99.90;;;;;;5012804;28;20196;-60
2022/01/15 05:58:13;;;;;;;1.17;0.77;;;-0.30;99.90;;;;;;4995527;28;20251;-60
2022/01/15 06:00:39;;;;;;;0.07;0.07;;;-0.40;99.90;;;;;;5012662;28;20211;-60
2022/01/15 06:03:05;;;;;;;0.30;0.30;;;-0.40;99.90;;;;;;5011110;28;20184;-60
2022/01/15 06:05:30;;;;;;;0.83;0.83;;;-0.40;99.90;;;;;;4993637;28;20199;-61
2022/01/15 06:07:56;;;;;;;0.80;0.80;;;-0.30;99.90;;;;;;4959224;28;20191;-60
2022/01/15 06:10:22;;;;;;;0.53;0.53;;;-0.30;99.90;;;;;;4975916;28;20576;-59
2022/01/15 06:12:48;;;;;;;0.10;0.10;;;-0.30;99.90;;;;;;4992856;28;20183;-60
2022/01/15 06:15:15;;;;;;;0.03;0.03;;;-0.40;99.90;;;;;;4975590;28;20212;-60
2022/01/15 06:17:42;;;;;;;0.13;0.13;;;-0.40;99.90;;;;;;4975200;28;20192;-59
2022/01/15 06:20:10;;;;;;;0.30;0.30;;;-0.40;99.90;;;;;;4992653;28;20552;-60
2022/01/15 06:22:36;;;;;;;0.93;0.43;;;-0.40;99.90;;;;;;4992505;28;20184;-61
2022/01/15 06:25:03;;;;;;;1.03;1.03;;;-0.40;99.90;;;;;;4991258;28;20663;-62
2022/01/15 06:27:30;;;;;;;3.80;2.10;;;-0.40;99.90;;;;;;4975081;28;20191;-60
2022/01/15 06:29:56;;;;;;;0.20;0.20;;;-0.50;99.90;;;;;;5008101;28;20278;-60
2022/01/15 06:32:26;;;;;;;3.80;1.07;;;-0.50;99.90;;;;;;5012208;28;20547;-61
2022/01/15 06:34:52;;;;;;;1.03;0.17;;;-0.40;99.90;;;;;;5012291;28;20232;-65
2022/01/15 06:37:18;;;;;;;0.30;0.30;;;-0.40;99.90;;;;;;5012304;28;20215;-60
2022/01/15 06:39:45;;;;;;;0.00;0.00;;;-0.40;99.90;;;;;;5012214;28;20204;-60
2022/01/15 06:42:10;;;;;;;0.10;0.10;;;-0.30;99.90;;;;;;5011916;28;20193;-59
2022/01/15 06:44:36;;;;;;;0.20;0.20;;;-0.30;99.90;;;;;;4994767;28;20617;-59
2022/01/15 06:47:02;;;;;;;0.00;0.00;;;-0.20;99.90;;;;;;5011225;28;20184;-60
2022/01/15 06:49:28;;;;;;;0.23;0.23;;;-0.20;99.90;;;;;;4994426;28;20344;-60
2022/01/15 06:51:54;;;;;;;0.60;0.60;;;-0.20;99.90;;;;;;5012042;28;20664;-61
2022/01/15 06:54:19;;;;;;;0.60;0.60;;;-0.10;99.90;;;;;;5011959;28;20207;-60
2022/01/15 06:56:45;;;;;;;0.47;0.27;;;-0.10;99.90;;;;;;4978200;28;20627;-61
2022/01/15 06:59:11;;;;;;;1.23;1.20;;;-0.10;99.90;;;;;;5011946;28;20620;-61
2022/01/15 07:01:36;;;;;;;0.37;0.37;;;0.00;99.90;;;;;;5012048;28;20191;-61
2022/01/15 07:04:02;;;;;;;1.50;0.97;;;0.00;99.90;;;;;;4968918;28;20196;-61
2022/01/15 07:06:28;;;;;;;0.17;0.17;;;0.10;99.90;;;;;;4992046;28;20643;-59
2022/01/15 07:08:54;;;;;;;1.47;1.40;;;0.10;99.90;;;;;;4991926;28;20188;-64
2022/01/15 07:11:19;;;;;;;0.10;0.10;;;0.20;99.90;;;;;;4974409;28;20532;-60
2022/01/15 07:13:45;;;;;;;0.67;0.50;;;0.20;99.90;;;;;;4992103;28;20211;-60
2022/01/15 07:16:11;;;;;;;0.20;0.20;;;0.30;99.90;;;;;;4991914;28;20206;-61
2022/01/15 07:18:36;;;;;;;0.73;0.73;;;0.40;99.90;;;;;;4974006;28;20297;-60
2022/01/15 07:21:02;;;;;;;1.30;1.20;;;0.50;99.90;;;;;;4958438;28;20651;-61
2022/01/15 07:23:28;;;;;;;0.00;0.00;;;0.50;99.90;;;;;;4991879;28;20189;-59
2022/01/15 07:25:54;;;;;;;0.20;0.20;;;0.60;99.90;;;;;;4992255;28;20213;-61
2022/01/15 07:28:19;;;;;;;0.07;0.07;;;0.70;99.90;;;;;;4977359;28;20630;-61
2022/01/15 07:30:45;;;;;;;0.00;0.00;;;0.70;99.90;;;;;;5011355;28;20193;-60
2022/01/15 07:33:12;;;;;;;0.23;0.23;;;0.80;99.90;;;;;;4993130;28;20192;-61
2022/01/15 07:35:38;;;;;;;6.40;1.80;;;0.90;99.90;;;;;;4994127;28;20538;-60
2022/01/15 07:38:04;;;;;;;0.17;0.17;;;1.00;99.90;;;;;;5011056;28;20183;-61
2022/01/15 07:40:30;;;;;;;0.07;0.07;;;1.10;99.90;;;;;;5011257;28;20181;-61
2022/01/15 07:42:56;;;;;;;0.10;0.10;;;1.10;99.90;;;;;;5012267;28;20648;-64
2022/01/15 07:45:21;;;;;;;0.00;0.00;;;1.20;99.90;;;;;;4997419;28;20269;-60
2022/01/15 07:47:47;;;;;;;0.40;0.40;;;1.30;99.90;;;;;;5014853;28;20246;-60
2022/01/15 07:50:17;;;;;;;0.10;0.10;;;1.30;99.90;;;;;;4997087;28;20704;-60
2022/01/15 07:52:43;;;;;;;0.00;0.00;;;1.40;99.90;;;;;;5015080;28;20265;-60
2022/01/15 07:55:09;;;;;;;0.40;0.40;;;1.40;99.90;;;;;;5014551;28;20698;-60
2022/01/15 07:57:35;;;;;;;0.47;0.47;;;1.40;99.90;;;;;;5014972;28;20193;-61
2022/01/15 08:00:01;;;;;;;0.00;0.00;;;1.40;99.90;;;;;;5014459;28;20546;-61
2022/01/15 08:02:26;;;;;;;0.27;0.27;;;1.50;99.90;;;;;;5014618;28;20585;-62
2022/01/15 08:04:52;;;;;;;0.10;0.10;;;1.50;99.90;;;;;;4998393;28;20188;-62
2022/01/15 08:07:18;;;;;;;2.27;0.40;;;1.50;99.90;;;;;;4994756;28;20189;-61
2022/01/15 08:09:44;;;;;;;0.20;0.20;;;1.60;99.90;;;;;;4977878;28;20190;-62
2022/01/15 08:12:11;;;;;;;0.00;0.00;;;1.60;99.90;;;;;;4994516;28;20732;-62
2022/01/15 08:14:37;;;;;;;0.00;0.00;;;1.70;99.90;;;;;;4961379;28;20299;-62
2022/01/15 08:17:03;;;;;;;0.00;0.00;;;1.70;99.90;;;;;;4994490;28;20471;-62
2022/01/15 08:19:29;;;;;;;0.10;0.10;;;1.70;99.90;;;;;;4994455;28;20230;-62
2022/01/15 08:21:55;;;;;;;0.10;0.10;;;1.80;99.90;;;;;;4977280;28;20187;-61
2022/01/15 08:24:21;;;;;;;1.60;0.50;;;1.90;99.90;;;;;;4993997;28;20406;-62
2022/01/15 08:26:47;;;;;;;0.40;0.40;;;2.00;99.90;;;;;;4994635;28;20267;-62
2022/01/15 08:29:13;;;;;;;0.03;0.03;;;2.00;99.90;;;;;;5004366;28;20230;-63
2022/01/15 08:31:39;;;;;;;0.20;0.20;;;2.50;99.90;;;;;;5014132;28;20198;-61
2022/01/15 08:34:04;;;;;;;0.53;0.53;;;2.90;99.90;;;;;;5013428;28;20601;-62
2022/01/15 08:36:32;;;;;;;0.87;0.63;;;2.80;99.90;;;;;;4996753;28;20212;-63
2022/01/15 08:38:58;;;;;;;0.00;0.00;;;2.50;99.90;;;;;;5014549;28;20176;-62
2022/01/15 08:41:24;;;;;;;0.53;0.53;;;2.30;99.90;;;;;;5014029;28;20180;-61
2022/01/15 08:43:50;;;;;;;1.70;0.97;;;2.20;99.90;;;;;;5013817;28;20211;-62
2022/01/15 08:46:18;;;;;;;0.10;0.10;;;2.10;99.90;;;;;;5014174;28;20175;-61
2022/01/15 08:48:44;;;;;;;0.60;0.60;;;2.20;99.90;;;;;;5013549;28;20709;-62
2022/01/15 08:51:10;;;;;;;1.13;1.03;;;2.40;99.90;;;;;;5013769;28;20175;-62
2022/01/15 08:53:36;;;;;;;0.20;0.20;;;3.00;99.90;;;;;;5013327;28;20318;-61
2022/01/15 08:56:03;;;;;;;0.00;0.00;;;2.80;99.70;;;;;;4979823;28;20215;-62
2022/01/15 08:58:30;;;;;;;0.20;0.20;;;2.60;99.90;;;;;;5013170;28;20235;-61
2022/01/15 09:00:57;;;;;;;0.10;0.10;;;2.50;99.90;;;;;;5013685;28;20187;-62
2022/01/15 09:03:23;;;;;;;0.23;0.23;;;2.40;99.90;;;;;;4992099;28;20330;-62
2022/01/15 09:05:50;;;;;;;0.23;0.23;;;2.40;99.90;;;;;;4993696;28;20543;-62
2022/01/15 09:08:17;;;;;;;0.10;0.10;;;2.40;99.90;;;;;;4993544;28;20268;-60
2022/01/15 09:10:43;;;;;;;0.10;0.10;;;2.30;99.90;;;;;;4976161;28;20198;-61
2022/01/15 09:13:09;;;;;;;0.20;0.20;;;2.40;99.90;;;;;;4992878;28;20179;-63
2022/01/15 09:15:35;;;;;;;0.00;0.00;;;2.40;99.90;;;;;;4993674;28;20215;-62
2022/01/15 09:18:01;;;;;;;0.10;0.10;;;2.40;99.90;;;;;;4993106;28;20184;-66
2022/01/15 09:20:27;;;;;;;0.10;0.10;;;2.50;99.90;;;;;;4993846;28;20175;-60
2022/01/15 09:22:54;;;;;;;0.07;0.07;;;2.50;99.90;;;;;;4976028;28;20199;-62
2022/01/15 09:25:20;;;;;;;0.00;0.00;;;2.60;99.90;;;;;;4975354;28;20184;-60
2022/01/15 09:30:31;;;;;;;0.10;0.10;;;2.60;99.50;;;;;;4978433;28;20223;-62
2022/01/15 09:32:58;;;;;;;0.20;0.20;;;2.60;99.50;;;;;;4991239;28;20193;-61
2022/01/15 09:35:28;;;;;;;0.10;0.10;;;2.70;99.40;;;;;;4992384;28;20313;-62
2022/01/15 09:37:55;;;;;;;0.00;0.00;;;2.70;99.30;;;;;;4993302;28;20333;-62
2022/01/15 09:40:23;;;;;;;0.87;0.63;;;2.80;99.00;;;;;;4992534;28;20590;-62
2022/01/15 09:42:50;;;;;;;2.10;0.43;;;2.80;99.00;;;;;;4993211;28;20647;-63
2022/01/15 09:45:18;;;;;;;0.10;0.10;;;2.90;99.00;;;;;;4992713;28;20208;-66
2022/01/15 09:47:44;;;;;;;3.73;1.33;;;2.90;98.60;;;;;;4991604;28;20291;-62
2022/01/15 09:50:15;;;;;;;2.47;0.80;;;3.00;98.50;;;;;;4992194;28;20671;-62
2022/01/15 09:52:41;;;;;;;3.40;1.13;;;2.90;97.50;;;;;;4993158;28;20621;-62
2022/01/15 09:55:09;;;;;;;2.87;0.83;;;3.00;97.70;;;;;;4992449;28;20224;-62
2022/01/15 09:57:36;;;;;;;3.37;1.10;;;3.00;97.70;;;;;;4993017;28;20209;-63
2022/01/15 10:00:08;;;;;;;3.93;1.00;;;3.00;97.50;;;;;;4993094;28;20188;-63
2022/01/15 10:02:36;;;;;;;0.70;0.60;;;3.10;97.70;;;;;;4992084;28;20184;-62
2022/01/15 10:05:01;;;;;;;2.67;1.10;;;3.10;97.10;;;;;;4992008;28;20203;-63
2022/01/15 10:07:28;;;;;;;1.63;0.80;;;3.10;97.20;;;;;;5011991;28;20286;-63
2022/01/15 10:09:55;;;;;;;5.20;0.90;;;3.10;97.20;;;;;;4995091;28;20195;-62
2022/01/15 10:12:31;;;;;;;7.20;0.93;;;3.20;97.10;;;;;;5011693;28;20660;-62
2022/01/15 10:15:06;;;;;;;5.10;0.90;;;3.20;96.50;;;;;;5012107;28;20218;-65
2022/01/15 10:17:34;;;;;;;2.23;0.90;;;3.30;96.20;;;;;;5011884;28;20250;-65
2022/01/15 10:20:07;;;;;;;3.20;0.77;;;3.30;95.80;;;;;;5011683;28;20285;-64
2022/01/15 10:22:34;;;;;;;1.33;0.60;;;3.30;95.70;;;;;;5011125;28;20194;-63
2022/01/15 10:25:10;;;;;;;3.87;0.87;;;3.30;95.80;;;;;;5011700;28;20660;-64
2022/01/15 10:27:41;;;;;;;2.60;0.90;;;3.40;95.90;;;;;;5012210;28;20187;-65
2022/01/15 10:30:09;;;;;;;3.17;1.07;;;3.50;95.40;;;;;;4993342;28;20184;-65
2022/01/15 10:32:38;;;;;;;3.87;0.80;;;3.50;95.10;;;;;;4991102;28;20547;-63
2022/01/15 10:35:16;;;;;;;3.00;0.83;;;3.50;95.20;;;;;;4991060;28;20212;-63
2022/01/15 10:37:57;;;;;;;2.40;0.77;;;3.50;95.00;;;;;;4974321;28;20509;-64
2022/01/15 10:40:28;;;;;;;2.20;1.00;;;3.60;94.50;;;;;;4973806;28;20704;-64
2022/01/15 10:42:59;;;;;;;3.13;1.00;;;3.60;94.20;;;;;;4991778;28;20184;-63
2022/01/15 10:45:29;;;;;;;3.47;0.80;;;3.50;94.10;;;;;;4991420;28;20187;-63
2022/01/15 10:47:57;;;;;;;2.63;0.80;;;3.50;94.20;;;;;;4992163;28;20195;-63
2022/01/15 10:50:30;;;;;;;0.97;0.53;;;3.50;94.40;;;;;;4991457;28;20297;-64
2022/01/15 10:52:58;;;;;;;6.50;0.90;;;3.60;94.00;;;;;;4973919;28;20355;-66
2022/01/15 10:55:29;;;;;;;5.00;1.00;;;3.60;94.00;;;;;;4991290;28;20212;-65
2022/01/15 10:57:56;;;;;;;4.83;0.87;;;3.60;93.80;;;;;;4991572;28;20241;-63
2022/01/15 11:00:30;;;;;;;4.63;1.53;;;3.60;93.80;;;;;;4991463;28;20172;-65
2022/01/15 11:03:03;;;;;;;3.20;1.00;;;3.60;94.00;;;;;;4974367;28;20521;-64
2022/01/15 11:05:31;;;;;;;4.70;0.83;;;3.60;93.60;;;;;;5011229;28;20263;-66
2022/01/15 11:08:28;;;;;;;3.77;0.77;;;3.60;93.60;;;;;;4993536;28;20186;-65
2022/01/15 11:11:01;;;;;;;7.20;1.23;;;3.50;93.80;;;;;;4992688;28;20245;-64
2022/01/15 11:13:39;;;;;;;1.97;1.10;;;3.50;94.40;;;;;;5011263;28;20198;-64
2022/01/15 11:16:14;;;;;;;6.20;1.20;;;3.50;93.90;;;;;;5011328;28;20168;-64
2022/01/15 11:18:59;;;;;;;4.87;0.93;;;3.50;93.90;;;;;;5015061;28;20321;-64
2022/01/15 11:21:29;;;;;;;3.43;0.90;;;3.50;93.90;;;;;;5014880;28;20306;-65
2022/01/15 11:24:02;;;;;;;4.07;1.10;;;3.50;93.30;;;;;;5015259;28;20571;-65
2022/01/15 11:26:29;;;;;;;2.87;1.00;;;3.40;94.10;;;;;;4998283;28;20266;-65
2022/01/15 11:28:57;;;;;;;3.63;1.17;;;3.40;93.50;;;;;;4989653;28;20192;-65
2022/01/15 11:31:28;;;;;;;12.33;1.47;;;3.50;93.50;;;;;;4994871;28;20238;-64
2022/01/15 11:33:56;;;;;;;18.47;1.53;;;3.50;93.50;;;;;;4995279;28;20211;-62
2022/01/15 11:36:41;;;;;;;7.93;1.90;;;3.50;93.70;;;;;;4977808;28;20330;-64
2022/01/15 11:39:09;;;;;;;7.97;1.27;;;3.50;93.50;;;;;;4995079;28;20169;-63
2022/01/15 11:41:37;;;;;;;3.43;1.10;;;3.50;93.60;;;;;;4977288;28;20172;-63
2022/01/15 11:44:08;;;;;;;5.23;1.60;;;3.50;93.90;;;;;;4995060;28;20214;-64
2022/01/15 11:46:54;;;;;;;4.47;1.07;;;3.50;93.80;;;;;;4994517;28;20164;-64
2022/01/15 11:49:26;;;;;;;6.50;1.80;;;3.50;93.30;;;;;;4995120;28;20621;-64
2022/01/15 11:51:56;;;;;;;3.80;1.10;;;3.50;94.20;;;;;;4994745;28;20604;-62
2022/01/15 11:54:22;;;;;;;11.47;2.37;;;3.60;93.90;;;;;;4994654;28;20208;-63
2022/01/15 11:56:49;;;;;;;4.07;1.27;;;3.60;94.00;;;;;;4995176;28;20191;-62
2022/01/15 11:59:23;;;;;;;6.67;1.57;;;3.60;93.80;;;;;;4994882;28;20203;-62
2022/01/15 12:01:51;;;;;;;10.07;1.60;;;3.60;93.30;;;;;;4995106;28;20644;-63
2022/01/15 12:04:32;;;;;;;3.83;1.07;;;3.50;93.20;;;;;;4989347;28;20323;-64
2022/01/15 12:07:04;;;;;;;4.53;1.50;;;3.50;93.50;;;;;;5014930;28;20163;-62
2022/01/15 12:09:39;;;;;;;3.50;1.17;;;3.50;93.20;;;;;;5014652;28;20176;-63
2022/01/15 12:14:58;;;;;;;3.03;1.10;;;3.60;93.10;;;;;;5014717;28;20214;-62
2022/01/15 12:17:32;;;;;;;3.60;1.43;;;3.70;92.90;;;;;;5014166;28;20183;-61
2022/01/15 12:20:07;;;;;;;15.00;2.00;;;3.60;93.10;;;;;;5014504;28;20698;-61
2022/01/15 12:22:45;;;;;;;6.90;1.50;;;3.70;93.20;;;;;;4996688;28;20206;-62
2022/01/15 12:25:16;;;;;;;5.13;1.13;;;4.10;91.80;;;;;;5014426;28;20628;-61
2022/01/15 12:27:44;;;;;;;2.87;1.17;;;4.70;90.90;;;;;;5014113;28;20531;-62
2022/01/15 12:30:11;;;;;;;8.33;1.60;;;5.20;90.20;;;;;;4995526;28;20193;-62
2022/01/15 12:32:40;;;;;;;7.53;1.27;;;5.90;90.00;;;;;;4994222;28;20185;-62
2022/01/15 12:35:15;;;;;;;10.53;2.13;;;6.40;88.50;;;;;;4994250;28;20214;-62
2022/01/15 12:37:50;;;;;;;6.57;1.60;;;6.60;86.10;;;;;;4994621;28;20170;-61
2022/01/15 12:40:16;;;;;;;10.07;2.17;;;7.10;85.00;;;;;;4994321;28;20687;-61
2022/01/15 12:42:42;;;;;;;5.70;1.77;;;7.50;82.10;;;;;;4994418;28;20186;-61
2022/01/15 12:45:16;;;;;;;9.50;2.23;;;5.80;82.90;;;;;;4994312;28;20185;-62
2022/01/15 12:47:46;;;;;;;6.90;2.10;;;4.80;86.40;;;;;;4976631;28;20200;-61
2022/01/15 12:50:12;;;;;;;12.47;3.17;;;4.20;89.10;;;;;;4993911;28;20168;-64
2022/01/15 12:52:38;;;;;;;7.47;1.73;;;3.80;90.10;;;;;;4993642;28;20192;-62
2022/01/15 12:55:04;;;;;;;4.17;1.93;;;3.60;90.70;;;;;;4994204;28;20216;-62
2022/01/15 12:57:38;;;;;;;7.57;1.70;;;3.50;91.40;;;;;;4994101;28;20271;-62
2022/01/15 13:00:09;;;;;;;6.20;1.40;;;3.50;91.30;;;;;;4977395;28;20188;-62
2022/01/15 13:02:34;;;;;;;9.57;1.63;;;3.40;91.20;;;;;;4993808;28;20258;-60
2022/01/15 13:05:00;;;;;;;11.23;1.40;;;3.40;91.10;;;;;;5010989;28;20648;-61
2022/01/15 13:07:26;;;;;;;5.70;1.70;;;3.30;91.10;;;;;;5013492;28;20317;-61
2022/01/15 13:09:52;;;;;;;8.03;1.63;;;3.30;91.50;;;;;;4995955;28;20237;-62
2022/01/15 13:12:18;;;;;;;6.43;1.70;;;3.30;91.30;;;;;;5013127;28;20191;-61
2022/01/15 13:14:44;;;;;;;7.33;2.27;;;3.30;91.60;;;;;;5013817;28;20648;-61
2022/01/15 13:17:23;;;;;;;4.40;1.87;;;3.20;91.60;;;;;;5013241;28;20237;-62
2022/01/15 13:19:49;;;;;;;4.90;1.47;;;3.20;91.80;;;;;;4993137;28;20234;-63
2022/01/15 13:22:19;;;;;;;12.70;2.30;;;3.20;91.40;;;;;;4995421;28;20187;-61
2022/01/15 13:24:45;;;;;;;7.33;1.90;;;3.20;91.20;;;;;;5013777;28;20176;-61
2022/01/15 13:27:10;;;;;;;8.83;1.67;;;3.20;91.10;;;;;;5013893;28;20202;-63
2022/01/15 13:29:39;;;;;;;13.40;2.10;;;3.20;91.20;;;;;;4982356;28;20275;-62